Time;durP1;ratioP1;P1;durP2;ratioP2;P2;SDS_P1;SDS_P2;PMS_P1;PMS_P2;Temp;Humidity;BMP_temperature;BMP_pressure;BME280_temperature;BME280_humidity;BME280_pressure;Samples;Min_cycle;Max_cycle;Signal;HPM_P1;HPM_P2
2024/01/23 00:01:31;;;;;;;17.90;3.73;;;8.10;99.90;;;;;;5076815;28;20493;-79
2024/01/23 00:03:57;;;;;;;12.53;4.70;;;8.10;99.90;;;;;;5083545;28;21016;-80
2024/01/23 00:06:24;;;;;;;8.90;2.80;;;7.90;99.90;;;;;;5079624;28;20485;-79
2024/01/23 00:08:52;;;;;;;20.07;3.40;;;7.80;99.90;;;;;;5088449;28;20878;-81
2024/01/23 00:11:19;;;;;;;16.30;3.83;;;7.70;99.90;;;;;;5084825;28;20535;-80
2024/01/23 00:13:46;;;;;;;11.43;2.90;;;7.70;99.90;;;;;;5078527;28;20453;-80
2024/01/23 00:16:13;;;;;;;18.23;4.00;;;7.60;99.90;;;;;;5078243;28;20458;-80
2024/01/23 00:18:41;;;;;;;13.30;4.00;;;7.60;99.90;;;;;;5079493;28;20539;-80
2024/01/23 00:21:08;;;;;;;13.93;3.60;;;7.60;99.90;;;;;;5083290;28;20475;-80
2024/01/23 00:23:35;;;;;;;13.20;4.23;;;7.50;99.90;;;;;;5079305;28;20490;-79
2024/01/23 00:26:02;;;;;;;13.10;3.13;;;7.50;99.90;;;;;;5077373;28;20457;-79
2024/01/23 00:28:28;;;;;;;15.03;4.30;;;7.50;99.90;;;;;;5084070;28;20477;-79
2024/01/23 00:30:54;;;;;;;14.63;3.83;;;7.50;99.90;;;;;;5084109;28;20481;-79
2024/01/23 00:33:21;;;;;;;15.53;3.43;;;7.40;99.90;;;;;;5080479;28;20542;-80
2024/01/23 00:35:49;;;;;;;15.00;4.23;;;7.40;99.90;;;;;;5078711;28;20211;-80
2024/01/23 00:38:16;;;;;;;15.40;3.33;;;7.40;99.90;;;;;;5079422;28;20594;-80
2024/01/23 00:40:43;;;;;;;11.33;3.70;;;7.30;99.90;;;;;;5082327;28;20456;-81
2024/01/23 00:43:11;;;;;;;15.60;3.90;;;7.30;99.90;;;;;;5079322;28;20453;-80
2024/01/23 00:45:38;;;;;;;14.03;3.23;;;7.30;99.90;;;;;;5086264;28;20595;-81
2024/01/23 00:48:05;;;;;;;22.17;4.23;;;7.30;99.90;;;;;;5077578;28;20476;-79
2024/01/23 00:50:32;;;;;;;13.47;3.80;;;7.20;99.90;;;;;;5078119;28;20446;-80
2024/01/23 00:53:00;;;;;;;14.37;4.47;;;7.20;99.90;;;;;;5076769;28;20460;-78
2024/01/23 00:55:27;;;;;;;9.40;3.00;;;7.10;99.90;;;;;;5081588;28;20536;-80
2024/01/23 00:57:54;;;;;;;9.23;3.20;;;7.10;99.90;;;;;;5081402;28;20484;-79
2024/01/23 01:00:21;;;;;;;11.50;3.27;;;7.10;99.90;;;;;;5080360;28;20496;-78
2024/01/23 01:02:48;;;;;;;24.33;4.83;;;7.20;99.90;;;;;;5080642;28;20471;-79
2024/01/23 01:05:15;;;;;;;15.63;3.73;;;7.10;99.90;;;;;;5082144;28;20564;-80
2024/01/23 01:07:42;;;;;;;10.47;3.33;;;7.10;99.90;;;;;;5075456;28;20485;-79
2024/01/23 01:10:10;;;;;;;11.60;3.73;;;7.20;99.90;;;;;;5084061;28;21027;-80
2024/01/23 01:12:37;;;;;;;16.23;4.07;;;7.20;99.90;;;;;;5084471;28;20487;-80
2024/01/23 01:15:05;;;;;;;15.40;3.40;;;7.30;99.90;;;;;;5088899;28;20786;-79
2024/01/23 01:17:32;;;;;;;19.07;4.03;;;7.30;99.90;;;;;;5090245;28;20545;-79
2024/01/23 01:19:59;;;;;;;14.63;4.00;;;7.30;99.90;;;;;;5086086;28;20558;-79
2024/01/23 01:22:26;;;;;;;8.83;2.90;;;7.40;99.90;;;;;;5080104;28;20476;-79
2024/01/23 01:24:53;;;;;;;13.43;3.60;;;7.40;99.90;;;;;;5078623;28;20491;-79
2024/01/23 01:27:21;;;;;;;15.40;3.37;;;7.50;99.90;;;;;;5078627;28;20563;-79
2024/01/23 01:29:48;;;;;;;11.97;2.90;;;7.60;99.90;;;;;;5082297;28;20485;-79
2024/01/23 01:32:15;;;;;;;15.07;3.80;;;7.60;99.90;;;;;;5075853;28;20453;-79
2024/01/23 01:34:42;;;;;;;16.23;3.43;;;7.60;99.90;;;;;;5084182;28;20458;-81
2024/01/23 01:37:08;;;;;;;11.40;3.27;;;7.50;99.90;;;;;;5080398;28;20481;-78
2024/01/23 01:39:35;;;;;;;12.23;3.07;;;7.50;99.90;;;;;;5083445;28;20456;-79
2024/01/23 01:42:02;;;;;;;13.13;3.13;;;7.70;99.90;;;;;;5081956;28;20464;-80
2024/01/23 01:44:32;;;;;;;13.60;2.80;;;7.70;99.90;;;;;;5087177;28;20564;-79
2024/01/23 01:46:59;;;;;;;7.00;2.30;;;7.70;99.90;;;;;;5080992;28;20511;-80
2024/01/23 01:49:26;;;;;;;14.43;3.13;;;7.70;99.90;;;;;;5085917;28;20461;-79
2024/01/23 01:51:54;;;;;;;11.83;2.70;;;7.60;99.90;;;;;;5084894;28;20516;-81
2024/01/23 01:54:22;;;;;;;11.40;2.93;;;7.60;99.90;;;;;;5091190;28;20527;-79
2024/01/23 01:56:51;;;;;;;12.13;3.80;;;7.60;99.90;;;;;;5084218;28;20492;-80
2024/01/23 01:59:20;;;;;;;13.70;3.13;;;7.60;99.90;;;;;;5088622;28;20511;-79
2024/01/23 02:01:49;;;;;;;10.60;2.27;;;7.60;99.90;;;;;;5083104;28;20464;-79
2024/01/23 02:04:15;;;;;;;15.17;3.27;;;7.60;99.90;;;;;;5078019;28;20572;-79
2024/01/23 02:06:42;;;;;;;6.20;3.00;;;7.60;99.90;;;;;;5076511;28;20480;-79
2024/01/23 02:09:11;;;;;;;12.40;2.50;;;7.60;99.90;;;;;;5081932;28;20486;-78
2024/01/23 02:11:38;;;;;;;10.63;2.77;;;7.70;99.90;;;;;;5082229;28;20464;-78
2024/01/23 02:14:07;;;;;;;12.57;3.60;;;7.70;99.90;;;;;;5073636;28;20986;-78
2024/01/23 02:16:35;;;;;;;8.23;3.23;;;7.70;99.90;;;;;;5081715;28;20487;-78
2024/01/23 02:19:03;;;;;;;13.10;3.30;;;7.60;99.90;;;;;;5084464;28;20807;-78
2024/01/23 02:21:30;;;;;;;9.77;3.00;;;7.60;99.90;;;;;;5081116;28;20490;-78
2024/01/23 02:23:58;;;;;;;14.80;3.30;;;7.60;99.90;;;;;;5081964;28;20925;-78
2024/01/23 02:26:25;;;;;;;11.83;3.10;;;7.60;99.90;;;;;;5078428;28;20559;-78
2024/01/23 02:28:51;;;;;;;9.83;2.67;;;7.60;99.90;;;;;;5077914;28;20450;-78
2024/01/23 02:31:18;;;;;;;9.43;2.43;;;7.70;99.90;;;;;;5085448;28;20462;-79
2024/01/23 02:33:45;;;;;;;14.40;3.87;;;7.70;99.90;;;;;;5079605;28;20826;-78
2024/01/23 02:36:12;;;;;;;8.23;2.50;;;7.40;99.90;;;;;;5085762;28;20980;-78
2024/01/23 02:38:39;;;;;;;9.53;2.37;;;7.10;99.90;;;;;;5083967;28;20545;-79
2024/01/23 02:41:07;;;;;;;10.07;2.30;;;7.00;99.90;;;;;;5085918;28;20544;-78
2024/01/23 02:43:34;;;;;;;11.87;2.90;;;6.80;99.90;;;;;;5085891;28;20539;-80
2024/01/23 02:46:00;;;;;;;12.20;2.73;;;6.70;99.90;;;;;;5085024;28;20580;-79
2024/01/23 02:48:27;;;;;;;10.60;3.33;;;6.60;99.90;;;;;;5083696;28;20462;-79
2024/01/23 02:50:54;;;;;;;19.43;3.27;;;6.60;99.90;;;;;;5081107;28;20489;-79
2024/01/23 02:53:21;;;;;;;10.27;2.27;;;6.60;99.90;;;;;;5080978;28;20453;-79
2024/01/23 02:55:48;;;;;;;13.23;3.30;;;6.50;99.90;;;;;;5086167;28;20456;-77
2024/01/23 02:58:17;;;;;;;12.33;3.60;;;6.40;99.90;;;;;;5082972;28;20482;-79
2024/01/23 03:00:44;;;;;;;16.47;4.90;;;6.40;99.90;;;;;;5084953;28;20458;-80
2024/01/23 03:03:11;;;;;;;20.20;4.80;;;6.30;99.90;;;;;;5073899;28;20457;-79
2024/01/23 03:05:38;;;;;;;16.67;3.77;;;6.30;99.90;;;;;;5084176;28;20482;-79
2024/01/23 03:08:06;;;;;;;8.37;2.87;;;6.30;99.90;;;;;;5086639;28;20489;-79
2024/01/23 03:10:34;;;;;;;11.77;4.10;;;6.30;99.90;;;;;;5073510;28;20537;-80
2024/01/23 03:13:02;;;;;;;15.17;2.70;;;6.30;99.90;;;;;;5084126;28;20454;-80
2024/01/23 03:15:30;;;;;;;11.63;2.93;;;6.40;99.90;;;;;;5086811;28;20455;-79
2024/01/23 03:17:58;;;;;;;16.30;3.60;;;6.40;99.90;;;;;;5079143;28;20736;-79
2024/01/23 03:20:29;;;;;;;16.33;3.47;;;6.40;99.90;;;;;;5082425;28;20486;-80
2024/01/23 03:22:56;;;;;;;14.40;4.00;;;6.50;99.90;;;;;;5080574;28;20543;-81
2024/01/23 03:25:23;;;;;;;12.10;2.80;;;6.60;99.90;;;;;;5087884;28;20491;-78
2024/01/23 03:27:50;;;;;;;9.57;2.87;;;6.60;99.90;;;;;;5079899;28;20542;-79
2024/01/23 03:30:28;;;;;;;15.03;3.33;;;6.60;99.90;;;;;;5079177;28;20538;-80
2024/01/23 03:32:57;;;;;;;13.67;2.63;;;6.70;99.90;;;;;;5079866;28;20457;-78
2024/01/23 03:35:24;;;;;;;11.17;2.63;;;6.80;99.90;;;;;;5084652;28;20538;-79
2024/01/23 03:37:51;;;;;;;17.67;2.80;;;6.90;99.90;;;;;;5080341;28;20480;-79
2024/01/23 03:40:18;;;;;;;8.90;1.87;;;7.00;99.90;;;;;;5084473;28;20466;-79
2024/01/23 03:42:45;;;;;;;18.13;3.70;;;7.10;99.90;;;;;;5071443;28;20951;-77
2024/01/23 03:45:12;;;;;;;12.37;3.80;;;7.20;99.90;;;;;;5076975;28;21083;-78
2024/01/23 03:47:38;;;;;;;7.43;2.87;;;7.20;99.90;;;;;;5080014;28;20578;-78
2024/01/23 03:50:08;;;;;;;8.90;2.73;;;7.30;99.90;;;;;;5079468;28;20966;-79
2024/01/23 03:52:36;;;;;;;12.87;2.70;;;7.30;99.90;;;;;;5077997;28;20453;-80
2024/01/23 03:55:03;;;;;;;7.57;2.00;;;7.40;99.90;;;;;;5082704;28;20446;-78
2024/01/23 03:57:30;;;;;;;8.83;3.23;;;7.40;99.90;;;;;;5077873;28;20486;-80
2024/01/23 03:59:57;;;;;;;14.77;2.70;;;7.40;99.90;;;;;;5077673;28;20457;-79
2024/01/23 04:02:25;;;;;;;10.30;3.00;;;7.40;99.90;;;;;;5082179;28;20459;-77
2024/01/23 04:04:52;;;;;;;18.03;3.03;;;7.40;99.90;;;;;;5077713;28;20488;-80
2024/01/23 04:07:20;;;;;;;12.40;2.40;;;7.50;99.90;;;;;;5075867;28;21053;-80
2024/01/23 04:09:50;;;;;;;12.47;2.70;;;7.50;99.90;;;;;;5074406;28;20539;-78
2024/01/23 04:12:16;;;;;;;17.47;3.20;;;7.50;99.90;;;;;;5080881;28;20470;-79
2024/01/23 04:14:43;;;;;;;13.43;2.90;;;7.50;99.90;;;;;;5079010;28;20545;-80
2024/01/23 04:17:10;;;;;;;11.90;3.23;;;7.40;99.90;;;;;;5077210;28;20871;-79
2024/01/23 04:19:37;;;;;;;7.27;2.30;;;7.40;99.90;;;;;;5076377;28;20462;-80
2024/01/23 04:22:04;;;;;;;12.37;2.50;;;7.40;99.90;;;;;;5076014;28;20808;-80
2024/01/23 04:24:32;;;;;;;12.70;3.23;;;7.40;99.90;;;;;;5077177;28;20457;-81
2024/01/23 04:27:02;;;;;;;9.27;2.90;;;7.40;99.90;;;;;;5075338;28;20517;-78
2024/01/23 04:29:29;;;;;;;11.00;3.30;;;7.30;99.90;;;;;;5076598;28;20452;-81
2024/01/23 04:31:56;;;;;;;17.50;3.97;;;7.30;99.90;;;;;;5078048;28;20455;-79
2024/01/23 04:34:23;;;;;;;8.57;2.87;;;7.30;99.90;;;;;;5076367;28;20457;-79
2024/01/23 04:36:50;;;;;;;5.13;2.43;;;7.30;99.90;;;;;;5082544;28;20871;-80
2024/01/23 04:39:17;;;;;;;18.00;3.53;;;7.30;99.90;;;;;;5079783;28;20454;-79
2024/01/23 04:41:45;;;;;;;13.97;3.40;;;7.40;99.90;;;;;;5086051;28;20531;-80
2024/01/23 04:44:12;;;;;;;7.47;2.27;;;7.40;99.90;;;;;;5075490;28;20461;-79
2024/01/23 04:46:39;;;;;;;12.07;3.00;;;7.30;99.90;;;;;;5078367;28;20491;-80
2024/01/23 04:49:05;;;;;;;14.00;3.17;;;7.30;99.90;;;;;;5076192;28;20459;-79
2024/01/23 04:51:32;;;;;;;17.20;2.60;;;7.30;99.90;;;;;;5077444;28;20459;-79
2024/01/23 04:53:59;;;;;;;11.40;2.30;;;7.20;99.90;;;;;;5079118;28;20482;-79
2024/01/23 04:56:26;;;;;;;9.93;2.80;;;7.20;99.90;;;;;;5077514;28;20500;-79
2024/01/23 04:58:54;;;;;;;11.40;2.50;;;7.20;99.90;;;;;;5079355;28;20550;-80
2024/01/23 05:01:21;;;;;;;9.63;3.50;;;7.10;99.90;;;;;;5069929;28;20455;-79
2024/01/23 05:03:48;;;;;;;10.30;2.43;;;7.10;99.90;;;;;;5076610;28;20540;-78
2024/01/23 05:06:14;;;;;;;13.20;3.23;;;7.10;99.90;;;;;;5085795;28;20517;-79
2024/01/23 05:08:41;;;;;;;8.47;2.00;;;7.10;99.90;;;;;;5089211;28;20451;-79
2024/01/23 05:11:08;;;;;;;17.23;3.63;;;7.20;99.90;;;;;;5088846;28;20497;-79
2024/01/23 05:13:35;;;;;;;10.93;2.47;;;7.20;99.90;;;;;;5086832;28;20454;-78
2024/01/23 05:16:04;;;;;;;22.27;4.10;;;7.10;99.90;;;;;;5085854;28;20542;-79
2024/01/23 05:18:30;;;;;;;12.23;3.00;;;7.00;99.90;;;;;;5083409;28;20476;-79
2024/01/23 05:20:57;;;;;;;13.63;3.20;;;7.00;99.90;;;;;;5076957;28;20511;-79
2024/01/23 05:23:24;;;;;;;15.73;2.90;;;7.00;99.90;;;;;;5077721;28;20452;-78
2024/01/23 05:25:51;;;;;;;20.57;3.10;;;6.90;99.90;;;;;;5074579;28;20494;-80
2024/01/23 05:28:18;;;;;;;16.03;3.67;;;6.90;99.90;;;;;;5075369;28;20485;-79
2024/01/23 05:30:45;;;;;;;13.90;3.03;;;6.80;99.90;;;;;;5075859;28;21013;-80
2024/01/23 05:33:13;;;;;;;24.93;3.53;;;6.80;99.90;;;;;;5081142;28;20530;-79
2024/01/23 05:35:40;;;;;;;14.00;2.40;;;6.80;99.90;;;;;;5089374;28;20489;-79
2024/01/23 05:38:07;;;;;;;14.20;3.13;;;6.80;99.90;;;;;;5082138;28;20485;-79
2024/01/23 05:40:34;;;;;;;12.57;3.07;;;6.80;99.90;;;;;;5081051;28;20465;-81
2024/01/23 05:43:02;;;;;;;10.20;2.83;;;6.80;99.90;;;;;;5083306;28;20458;-78
2024/01/23 05:45:28;;;;;;;13.70;3.07;;;6.80;99.90;;;;;;5079829;28;20483;-79
2024/01/23 05:47:57;;;;;;;11.00;3.60;;;6.80;99.90;;;;;;5081401;28;20479;-79
2024/01/23 05:50:25;;;;;;;15.10;4.70;;;6.80;99.90;;;;;;5080712;28;20490;-79
2024/01/23 05:52:53;;;;;;;13.57;3.30;;;6.80;99.90;;;;;;5084377;28;21014;-81
2024/01/23 05:55:20;;;;;;;11.70;2.77;;;6.90;99.90;;;;;;5068833;28;20455;-79
2024/01/23 05:57:46;;;;;;;13.20;2.40;;;6.90;99.90;;;;;;5085907;28;20574;-79
2024/01/23 06:00:14;;;;;;;6.73;2.20;;;6.90;99.90;;;;;;5086552;28;20456;-80
2024/01/23 06:02:41;;;;;;;9.73;2.47;;;6.90;99.90;;;;;;5085874;28;20480;-80
2024/01/23 06:05:09;;;;;;;14.17;3.97;;;6.90;99.90;;;;;;5086619;28;20439;-81
2024/01/23 06:07:41;;;;;;;25.33;4.30;;;6.90;99.90;;;;;;5085110;28;20479;-79
2024/01/23 06:10:09;;;;;;;14.33;3.37;;;6.80;99.90;;;;;;5084600;28;20459;-79
2024/01/23 06:12:36;;;;;;;12.80;2.37;;;6.80;99.90;;;;;;5080086;28;20902;-77
2024/01/23 06:15:06;;;;;;;12.20;2.90;;;6.70;99.90;;;;;;5078388;28;20468;-80
2024/01/23 06:17:32;;;;;;;9.77;3.20;;;6.70;99.90;;;;;;5078837;28;21002;-78
2024/01/23 06:20:01;;;;;;;19.43;3.20;;;6.60;99.90;;;;;;5086237;28;20552;-77
2024/01/23 06:22:27;;;;;;;12.07;3.10;;;6.60;99.90;;;;;;5092760;28;20450;-80
2024/01/23 06:25:02;;;;;;;14.17;3.07;;;6.50;99.90;;;;;;5092204;28;20481;-79
2024/01/23 06:27:30;;;;;;;12.30;2.87;;;6.40;99.90;;;;;;5083214;28;20575;-79
2024/01/23 06:29:56;;;;;;;11.13;2.67;;;6.40;99.90;;;;;;5083745;28;20511;-79
2024/01/23 06:32:24;;;;;;;8.20;2.70;;;6.40;99.90;;;;;;5082413;28;20555;-78
2024/01/23 06:34:51;;;;;;;18.40;3.00;;;6.40;99.90;;;;;;5081771;28;20462;-78
2024/01/23 06:37:18;;;;;;;12.73;3.80;;;6.40;99.90;;;;;;5081963;28;20505;-80
2024/01/23 06:39:44;;;;;;;13.47;2.77;;;6.50;99.90;;;;;;5081522;28;20443;-78
2024/01/23 06:42:13;;;;;;;12.77;2.80;;;6.50;99.90;;;;;;5077557;28;21034;-79
2024/01/23 06:44:40;;;;;;;14.27;3.30;;;6.60;99.90;;;;;;5081886;28;20464;-78
2024/01/23 06:47:07;;;;;;;13.63;3.37;;;6.50;99.90;;;;;;5080012;28;20510;-80
2024/01/23 06:49:33;;;;;;;15.40;3.40;;;6.50;99.90;;;;;;5084255;28;21032;-78
2024/01/23 06:52:00;;;;;;;14.70;3.63;;;6.50;99.90;;;;;;5085547;28;20527;-79
2024/01/23 06:54:27;;;;;;;12.80;3.87;;;6.60;99.90;;;;;;5086910;28;20447;-78
2024/01/23 06:56:54;;;;;;;15.20;3.23;;;6.60;99.90;;;;;;5085422;28;20485;-78
2024/01/23 06:59:22;;;;;;;12.87;2.70;;;6.60;99.90;;;;;;5084829;28;20516;-78
2024/01/23 07:01:49;;;;;;;7.50;3.17;;;6.70;99.90;;;;;;5081821;28;21253;-79
2024/01/23 07:04:17;;;;;;;13.40;2.70;;;6.70;99.90;;;;;;5076699;28;20573;-80
2024/01/23 07:06:44;;;;;;;10.40;3.93;;;6.70;99.90;;;;;;5076833;28;20518;-79
2024/01/23 07:09:11;;;;;;;17.73;3.43;;;6.80;99.90;;;;;;5084684;28;20489;-79
2024/01/23 07:11:41;;;;;;;14.43;3.80;;;6.80;99.90;;;;;;5096576;28;20546;-80
2024/01/23 07:14:08;;;;;;;17.17;3.60;;;6.80;99.90;;;;;;5089451;28;20868;-81
2024/01/23 07:16:36;;;;;;;12.80;4.63;;;6.80;99.90;;;;;;5076983;28;20467;-76
2024/01/23 07:19:03;;;;;;;17.47;5.03;;;6.80;99.90;;;;;;5083045;28;20953;-77
2024/01/23 07:21:30;;;;;;;14.30;3.00;;;6.80;99.90;;;;;;5077909;28;20454;-78
2024/01/23 07:23:57;;;;;;;9.80;2.60;;;6.70;99.90;;;;;;5077793;28;20462;-78
2024/01/23 07:26:26;;;;;;;15.13;3.27;;;6.70;99.90;;;;;;5074901;28;20486;-78
2024/01/23 07:28:53;;;;;;;8.80;3.33;;;6.80;99.90;;;;;;5072024;28;20896;-78
2024/01/23 07:31:20;;;;;;;16.17;4.20;;;6.70;99.90;;;;;;5068702;28;20439;-79
2024/01/23 07:33:48;;;;;;;13.63;3.70;;;6.70;99.90;;;;;;5075735;28;20709;-76
2024/01/23 07:36:15;;;;;;;14.40;3.27;;;6.70;99.90;;;;;;5071983;28;20613;-79
2024/01/23 07:38:42;;;;;;;17.20;3.40;;;6.70;99.90;;;;;;5072382;28;20461;-79
2024/01/23 07:41:09;;;;;;;10.50;3.10;;;6.70;99.90;;;;;;5073899;28;20459;-78
2024/01/23 07:43:37;;;;;;;15.63;3.00;;;6.70;99.90;;;;;;5074845;28;20903;-78
2024/01/23 07:46:04;;;;;;;14.03;3.73;;;6.70;99.90;;;;;;5075096;28;20564;-78
2024/01/23 07:48:30;;;;;;;16.53;3.50;;;6.60;99.90;;;;;;5075764;28;20460;-77
2024/01/23 07:50:59;;;;;;;11.50;2.90;;;6.50;99.90;;;;;;5075592;28;20460;-78
2024/01/23 07:53:26;;;;;;;10.27;2.70;;;6.50;99.90;;;;;;5076025;28;20951;-77
2024/01/23 07:55:52;;;;;;;22.37;3.30;;;6.50;99.90;;;;;;5077721;28;20540;-78
2024/01/23 07:58:19;;;;;;;16.17;3.27;;;6.40;99.90;;;;;;5080785;28;20536;-78
2024/01/23 08:00:46;;;;;;;17.07;4.03;;;6.40;99.90;;;;;;5084470;28;20530;-80
2024/01/23 08:03:13;;;;;;;14.93;3.60;;;6.40;99.90;;;;;;5082391;28;20485;-78
2024/01/23 08:05:41;;;;;;;22.03;5.90;;;6.40;99.90;;;;;;5080767;28;20530;-79
2024/01/23 08:08:09;;;;;;;12.33;3.67;;;6.40;99.90;;;;;;5084911;28;20469;-80
2024/01/23 08:10:36;;;;;;;20.33;4.03;;;6.40;99.90;;;;;;5090739;28;21409;-77
2024/01/23 08:13:03;;;;;;;11.03;2.53;;;6.40;99.90;;;;;;5096443;28;20517;-78
2024/01/23 08:15:30;;;;;;;15.77;3.70;;;6.40;99.90;;;;;;5088518;28;20482;-81
2024/01/23 08:17:56;;;;;;;12.93;3.50;;;6.30;99.90;;;;;;5088736;28;20502;-80
2024/01/23 08:20:23;;;;;;;13.07;2.60;;;6.40;99.90;;;;;;5086958;28;20518;-76
2024/01/23 08:22:51;;;;;;;10.77;3.87;;;6.40;99.90;;;;;;5084440;28;20552;-78
2024/01/23 08:25:19;;;;;;;17.97;5.07;;;6.40;99.90;;;;;;5083709;28;21029;-78
2024/01/23 08:27:46;;;;;;;16.70;3.00;;;6.30;99.90;;;;;;5082609;28;20503;-80
2024/01/23 08:30:13;;;;;;;17.10;4.20;;;6.30;99.90;;;;;;5082357;28;20454;-79
2024/01/23 08:32:40;;;;;;;18.40;5.03;;;6.30;99.90;;;;;;5083489;28;20474;-80
2024/01/23 08:35:08;;;;;;;11.73;3.40;;;6.40;99.90;;;;;;5090691;28;20448;-81
2024/01/23 08:37:35;;;;;;;16.30;3.40;;;6.50;99.90;;;;;;5085651;28;20502;-77
2024/01/23 08:40:01;;;;;;;19.67;3.20;;;6.50;99.90;;;;;;5082232;28;20973;-80
2024/01/23 08:42:29;;;;;;;8.83;2.50;;;6.40;99.90;;;;;;5084645;28;20493;-81
2024/01/23 08:44:56;;;;;;;12.87;3.50;;;6.40;99.90;;;;;;5082954;28;20950;-79
2024/01/23 08:47:23;;;;;;;14.17;3.70;;;6.40;99.90;;;;;;5087333;28;20483;-77
2024/01/23 08:49:50;;;;;;;12.63;3.17;;;6.40;99.90;;;;;;5086682;28;20455;-79
2024/01/23 08:52:18;;;;;;;20.33;3.73;;;6.50;99.90;;;;;;5085675;28;20467;-81
2024/01/23 08:54:45;;;;;;;17.47;3.40;;;6.50;99.90;;;;;;5085364;28;20504;-79
2024/01/23 08:57:12;;;;;;;15.67;2.47;;;6.60;99.90;;;;;;5089533;28;20530;-80
2024/01/23 08:59:40;;;;;;;17.70;3.73;;;6.60;99.90;;;;;;5088780;28;20447;-80
2024/01/23 09:02:07;;;;;;;21.30;3.33;;;6.60;99.90;;;;;;5084664;28;20450;-80
2024/01/23 09:04:34;;;;;;;17.60;4.27;;;6.60;99.90;;;;;;5084794;28;20492;-81
2024/01/23 09:07:01;;;;;;;8.60;3.47;;;6.60;99.90;;;;;;5084274;28;21037;-78
2024/01/23 09:09:28;;;;;;;15.60;3.30;;;6.70;99.90;;;;;;5084372;28;20461;-80
2024/01/23 09:11:55;;;;;;;20.30;5.23;;;6.70;99.90;;;;;;5086419;28;20452;-77
2024/01/23 09:14:22;;;;;;;11.20;2.70;;;6.70;99.90;;;;;;5085125;28;20526;-80
2024/01/23 09:16:51;;;;;;;14.03;4.07;;;6.80;99.90;;;;;;5091042;28;20892;-80
2024/01/23 09:19:18;;;;;;;17.77;3.23;;;6.80;99.90;;;;;;5084540;28;20467;-80
2024/01/23 09:21:45;;;;;;;13.10;4.30;;;6.90;99.90;;;;;;5085396;28;20458;-82
2024/01/23 09:24:12;;;;;;;16.03;3.77;;;6.80;99.90;;;;;;5072360;28;20881;-78
2024/01/23 09:26:39;;;;;;;12.63;2.90;;;6.90;99.90;;;;;;5081278;28;20560;-79
2024/01/23 09:29:06;;;;;;;12.10;3.43;;;7.00;99.90;;;;;;5089484;28;20447;-80
2024/01/23 09:31:33;;;;;;;18.03;3.57;;;7.00;99.90;;;;;;5088737;28;20459;-81
2024/01/23 09:34:01;;;;;;;8.30;3.20;;;7.00;99.90;;;;;;5085740;28;20455;-77
2024/01/23 09:36:28;;;;;;;13.33;2.97;;;7.10;99.90;;;;;;5087420;28;20502;-81
2024/01/23 09:38:55;;;;;;;14.80;5.00;;;7.20;99.90;;;;;;5086497;28;20447;-78
2024/01/23 09:41:23;;;;;;;13.17;3.40;;;7.20;99.90;;;;;;5082048;28;20471;-81
2024/01/23 09:43:51;;;;;;;12.07;2.60;;;7.30;99.90;;;;;;5085792;28;20503;-80
2024/01/23 09:46:19;;;;;;;16.13;2.97;;;7.30;99.90;;;;;;5083009;28;20467;-79
2024/01/23 09:48:47;;;;;;;16.83;3.90;;;7.40;99.90;;;;;;5086202;28;20449;-81
2024/01/23 09:51:16;;;;;;;22.03;5.20;;;7.40;99.90;;;;;;5083837;28;20463;-79
2024/01/23 09:53:43;;;;;;;17.40;3.80;;;7.40;99.90;;;;;;5089271;28;20497;-80
2024/01/23 09:56:11;;;;;;;17.50;3.50;;;7.40;99.90;;;;;;5089804;28;21030;-80
2024/01/23 09:58:38;;;;;;;16.47;6.37;;;7.40;99.90;;;;;;5093425;28;20476;-81
2024/01/23 10:01:06;;;;;;;15.70;3.53;;;7.50;99.90;;;;;;5091228;28;20477;-80
2024/01/23 10:03:34;;;;;;;17.37;4.17;;;7.50;99.90;;;;;;5083850;28;20524;-80
2024/01/23 10:06:01;;;;;;;9.17;3.43;;;7.60;99.90;;;;;;5080577;28;20459;-81
2024/01/23 10:08:35;;;;;;;10.77;3.00;;;7.50;99.90;;;;;;5086466;28;20592;-79
2024/01/23 10:11:04;;;;;;;31.57;5.10;;;7.50;99.90;;;;;;5084626;28;20473;-80
2024/01/23 10:13:31;;;;;;;14.70;3.93;;;7.60;99.90;;;;;;5091170;28;20454;-79
2024/01/23 10:16:00;;;;;;;16.10;4.90;;;7.60;99.90;;;;;;5081024;28;20462;-80
2024/01/23 10:18:27;;;;;;;16.47;3.53;;;7.70;99.90;;;;;;5086451;28;20514;-79
2024/01/23 10:20:54;;;;;;;15.23;4.07;;;7.70;99.90;;;;;;5087966;28;20464;-80
2024/01/23 10:23:21;;;;;;;14.33;3.40;;;7.70;99.90;;;;;;5080607;28;20460;-81
2024/01/23 10:25:49;;;;;;;14.40;4.17;;;7.80;99.90;;;;;;5088255;28;20517;-80
2024/01/23 10:28:16;;;;;;;14.60;3.27;;;7.90;99.90;;;;;;5088565;28;20580;-82
2024/01/23 10:30:46;;;;;;;19.10;4.67;;;8.00;99.90;;;;;;5089868;28;20492;-83
2024/01/23 10:33:13;;;;;;;16.47;4.80;;;8.10;99.90;;;;;;5089447;28;20489;-81
2024/01/23 10:35:42;;;;;;;19.57;3.57;;;8.10;99.90;;;;;;5093139;28;20444;-80
2024/01/23 10:38:14;;;;;;;11.20;4.20;;;8.10;99.90;;;;;;5093784;28;20545;-82
2024/01/23 10:40:41;;;;;;;20.63;4.00;;;8.10;99.90;;;;;;5087144;28;20420;-79
2024/01/23 10:43:10;;;;;;;11.97;3.20;;;8.20;99.90;;;;;;5096335;28;20455;-81
2024/01/23 10:45:38;;;;;;;20.07;4.00;;;8.20;99.90;;;;;;5098101;28;20455;-80
2024/01/23 10:48:07;;;;;;;20.03;3.63;;;8.40;99.90;;;;;;5095288;28;20493;-80
2024/01/23 10:50:34;;;;;;;15.23;3.20;;;8.40;99.90;;;;;;5095887;28;20522;-81
2024/01/23 10:53:04;;;;;;;18.83;5.40;;;8.40;99.90;;;;;;5090287;28;20531;-78
2024/01/23 10:55:33;;;;;;;18.33;4.43;;;8.50;99.90;;;;;;5093867;28;20782;-80
2024/01/23 10:58:04;;;;;;;12.00;3.43;;;8.70;99.90;;;;;;5089844;28;20468;-79
2024/01/23 11:00:38;;;;;;;10.13;2.93;;;8.70;99.90;;;;;;5087671;28;20457;-80
2024/01/23 11:03:05;;;;;;;17.47;3.60;;;8.70;99.90;;;;;;5087889;28;20523;-80
2024/01/23 11:05:39;;;;;;;13.97;4.47;;;8.80;99.90;;;;;;5086932;28;20482;-78
2024/01/23 11:08:18;;;;;;;20.10;4.40;;;9.10;99.90;;;;;;5085607;28;20493;-79
2024/01/23 11:10:49;;;;;;;12.43;3.33;;;9.10;99.90;;;;;;5097930;28;20536;-79
2024/01/23 11:13:23;;;;;;;18.17;5.00;;;9.40;99.90;;;;;;5098939;28;20487;-82
2024/01/23 11:15:51;;;;;;;24.60;4.70;;;9.70;99.90;;;;;;5086340;28;20458;-83
2024/01/23 11:18:27;;;;;;;19.70;4.37;;;9.60;99.90;;;;;;5095181;28;20510;-82
2024/01/23 11:21:14;;;;;;;16.33;4.00;;;9.80;99.90;;;;;;5091889;28;20562;-78
2024/01/23 11:23:42;;;;;;;16.20;4.90;;;10.00;99.90;;;;;;5082864;28;20556;-80
2024/01/23 11:26:15;;;;;;;15.20;3.50;;;10.10;99.90;;;;;;5083500;28;20481;-82
2024/01/23 11:28:43;;;;;;;19.40;4.70;;;10.20;99.90;;;;;;5079732;28;20494;-81
2024/01/23 11:31:15;;;;;;;17.67;4.17;;;10.30;99.90;;;;;;5084757;28;20460;-80
2024/01/23 11:33:42;;;;;;;13.37;4.53;;;10.60;99.90;;;;;;5084980;28;20530;-78
2024/01/23 11:36:10;;;;;;;12.73;4.13;;;11.70;99.90;;;;;;5082985;28;20460;-78
2024/01/23 11:38:42;;;;;;;16.73;4.10;;;12.80;99.90;;;;;;5083163;28;20501;-79
2024/01/23 11:41:23;;;;;;;13.60;4.00;;;13.00;99.90;;;;;;5086935;28;20468;-80
2024/01/23 11:43:53;;;;;;;11.90;5.70;;;13.20;99.90;;;;;;5079208;28;20842;-79
2024/01/23 11:46:22;;;;;;;20.43;4.27;;;13.80;99.90;;;;;;5073914;28;20548;-79
2024/01/23 11:48:50;;;;;;;18.10;5.00;;;13.50;99.90;;;;;;5081070;28;20489;-78
2024/01/23 11:51:17;;;;;;;15.57;3.97;;;13.50;99.90;;;;;;5083532;28;20482;-79
2024/01/23 11:53:45;;;;;;;13.23;3.70;;;14.00;99.90;;;;;;5078177;28;20466;-79
2024/01/23 11:56:12;;;;;;;14.80;4.40;;;14.90;99.90;;;;;;5081593;28;20485;-80
2024/01/23 11:58:41;;;;;;;13.30;3.53;;;14.70;99.90;;;;;;5082503;28;20580;-79
2024/01/23 12:01:09;;;;;;;11.50;3.63;;;14.10;99.90;;;;;;5081015;28;20461;-78
2024/01/23 12:03:45;;;;;;;15.33;3.60;;;13.60;99.90;;;;;;5083275;28;20478;-78
2024/01/23 12:06:12;;;;;;;8.63;3.00;;;13.10;99.90;;;;;;5081453;28;20472;-77
2024/01/23 12:08:39;;;;;;;15.93;4.60;;;12.50;99.90;;;;;;5079776;28;20486;-79
2024/01/23 12:11:06;;;;;;;17.53;3.90;;;13.00;99.90;;;;;;5084558;28;20455;-79
2024/01/23 12:13:36;;;;;;;13.17;5.00;;;13.70;99.90;;;;;;5083175;28;20454;-80
2024/01/23 12:16:07;;;;;;;13.70;4.37;;;14.30;99.90;;;;;;5088594;28;20544;-79
2024/01/23 12:18:34;;;;;;;16.43;3.97;;;13.40;99.90;;;;;;5077192;28;20447;-77
2024/01/23 12:21:04;;;;;;;16.30;4.07;;;13.20;99.90;;;;;;5082531;28;20511;-78
2024/01/23 12:23:31;;;;;;;23.03;4.70;;;13.10;99.90;;;;;;5082018;28;20454;-80
2024/01/23 12:26:00;;;;;;;12.80;4.40;;;12.90;99.90;;;;;;5083080;28;20452;-78
2024/01/23 12:28:33;;;;;;;15.47;4.50;;;12.20;99.90;;;;;;5083188;28;20494;-78
2024/01/23 12:31:00;;;;;;;17.10;4.27;;;11.80;99.90;;;;;;5088652;28;20479;-78
2024/01/23 12:33:27;;;;;;;18.93;3.37;;;11.60;99.90;;;;;;5079668;28;20459;-78
2024/01/23 12:35:54;;;;;;;19.03;3.97;;;11.00;99.90;;;;;;5082964;28;20451;-79
2024/01/23 12:38:23;;;;;;;21.50;4.83;;;11.00;99.90;;;;;;5082777;28;20474;-80
2024/01/23 12:40:52;;;;;;;17.63;3.63;;;11.20;99.90;;;;;;5084822;28;20483;-77
2024/01/23 12:43:22;;;;;;;15.67;3.43;;;11.30;99.90;;;;;;5083378;28;20458;-78
2024/01/23 12:45:52;;;;;;;11.77;3.67;;;11.60;99.90;;;;;;5081766;28;20452;-77
2024/01/23 12:48:21;;;;;;;17.40;3.50;;;11.90;99.90;;;;;;5077162;28;20496;-78
2024/01/23 12:50:49;;;;;;;10.50;3.70;;;11.80;99.90;;;;;;5083945;28;20543;-77